Time;durP1;ratioP1;P1;durP2;ratioP2;P2;SDS_P1;SDS_P2;PMS_P1;PMS_P2;Temp;Humidity;BMP_temperature;BMP_pressure;BME280_temperature;BME280_humidity;BME280_pressure;Samples;Min_cycle;Max_cycle;Signal;HPM_P1;HPM_P2
2023/05/04 00:01:58;;;;;;;15.48;10.30;;;;;;;12.05;100.00;93051.53;4998551;28;20034;-79
2023/05/04 00:04:23;;;;;;;14.07;9.48;;;;;;;12.09;100.00;93047.28;4996894;28;20526;-79
2023/05/04 00:06:49;;;;;;;15.60;10.18;;;;;;;12.08;100.00;93048.34;4997419;28;20033;-78
2023/05/04 00:09:15;;;;;;;17.10;10.43;;;;;;;12.06;100.00;93053.88;4980971;28;20033;-80
2023/05/04 00:11:41;;;;;;;14.25;9.90;;;;;;;12.05;100.00;93054.16;4997004;28;20030;-80
2023/05/04 00:14:07;;;;;;;18.20;10.98;;;;;;;12.06;100.00;93050.47;4980675;28;20037;-80
2023/05/04 00:16:34;;;;;;;16.33;10.75;;;;;;;12.07;100.00;93052.81;4997358;28;20038;-79
2023/05/04 00:18:59;;;;;;;14.88;9.55;;;;;;;12.05;100.00;93047.06;4981511;28;20061;-79
2023/05/04 00:21:25;;;;;;;15.60;9.55;;;;;;;12.07;100.00;93052.81;4981451;28;20038;-79
2023/05/04 00:23:50;;;;;;;13.90;9.60;;;;;;;12.18;100.00;93053.47;4978087;28;20567;-79
2023/05/04 00:26:16;;;;;;;19.67;10.05;;;;;;;12.15;100.00;93048.78;4991182;28;20105;-79
2023/05/04 00:28:42;;;;;;;15.43;9.80;;;;;;;12.07;100.00;93047.56;4995276;28;20042;-80
2023/05/04 00:31:08;;;;;;;13.90;9.60;;;;;;;12.07;100.00;93052.03;4995318;28;20050;-79
2023/05/04 00:33:33;;;;;;;15.07;10.18;;;;;;;12.05;100.00;93044.44;4976373;28;20046;-78
2023/05/04 00:36:01;;;;;;;15.93;9.57;;;;;;;12.23;100.00;93045.53;4994772;28;20042;-79
2023/05/04 00:38:27;;;;;;;13.93;9.82;;;;;;;12.31;100.00;93045.97;4993833;28;20113;-80
2023/05/04 00:40:52;;;;;;;13.55;9.45;;;;;;;12.19;100.00;93041.91;4993936;28;20168;-79
2023/05/04 00:43:18;;;;;;;14.13;9.48;;;;;;;12.07;100.00;93047.56;4994215;28;20515;-79
2023/05/04 00:45:44;;;;;;;13.10;9.45;;;;;;;12.01;100.00;93048.69;4987861;28;20050;-78
2023/05/04 00:48:09;;;;;;;13.13;9.60;;;;;;;12.35;100.00;93042.50;4992856;28;20034;-78
2023/05/04 00:50:35;;;;;;;13.25;9.07;;;;;;;12.13;100.00;93034.38;4995327;28;20038;-79
2023/05/04 00:53:07;;;;;;;15.70;9.82;;;;;;;12.04;100.00;93042.09;4994633;28;20038;-79
2023/05/04 00:55:35;;;;;;;13.30;9.45;;;;;;;11.99;100.00;93039.53;5010623;28;20381;-79
2023/05/04 00:58:01;;;;;;;14.18;9.82;;;;;;;11.97;100.00;93039.03;4993772;28;20026;-79
2023/05/04 01:00:27;;;;;;;14.50;9.45;;;;;;;11.93;100.00;93040.66;4975746;28;20038;-79
2023/05/04 01:02:52;;;;;;;12.27;9.05;;;;;;;11.92;100.00;93039.88;4977586;28;20033;-78
2023/05/04 01:05:18;;;;;;;15.07;9.10;;;;;;;11.89;100.00;93035.19;4995025;28;20045;-80
2023/05/04 01:08:11;;;;;;;14.20;9.25;;;;;;;11.90;100.00;93044.63;4993481;28;20038;-80
2023/05/04 01:10:58;;;;;;;13.40;9.68;;;;;;;11.94;100.00;93039.59;5004738;28;20022;-80
2023/05/04 01:13:25;;;;;;;12.73;9.15;;;;;;;11.92;100.00;93033.84;4994112;28;20092;-79
2023/05/04 01:15:51;;;;;;;13.48;9.23;;;;;;;11.95;100.00;93041.16;4995374;28;20049;-79
2023/05/04 01:18:16;;;;;;;14.40;8.98;;;;;;;11.99;100.00;93039.53;4993440;28;20044;-79
2023/05/04 01:20:42;;;;;;;12.73;9.02;;;;;;;11.97;100.00;93036.41;4997059;28;20026;-80
2023/05/04 01:23:09;;;;;;;13.50;9.27;;;;;;;11.92;100.00;93033.84;4995269;28;20064;-79
2023/05/04 01:25:45;;;;;;;13.00;8.57;;;;;;;12.05;100.00;93033.94;4987610;28;20121;-79
2023/05/04 01:28:17;;;;;;;15.25;9.73;;;;;;;11.93;100.00;93041.41;4990695;28;20070;-79
2023/05/04 01:30:48;;;;;;;14.63;8.98;;;;;;;11.86;100.00;93041.72;4993359;28;20062;-79
2023/05/04 01:33:15;;;;;;;13.43;9.57;;;;;;;11.83;100.00;93037.06;4993813;28;20132;-79
2023/05/04 01:35:41;;;;;;;15.55;9.38;;;;;;;11.81;100.00;93038.41;4995263;28;20030;-79
2023/05/04 01:38:07;;;;;;;14.50;9.05;;;;;;;11.87;100.00;93045.97;4992146;28;20072;-81
2023/05/04 01:40:32;;;;;;;12.40;8.95;;;;;;;11.92;100.00;93025.97;4993291;28;20073;-79
2023/05/04 01:42:58;;;;;;;14.48;8.88;;;;;;;11.84;100.00;93037.84;4993358;28;20030;-79
2023/05/04 01:45:24;;;;;;;12.27;8.77;;;;;;;11.78;100.00;93039.75;4994012;28;20081;-80
2023/05/04 01:47:49;;;;;;;13.80;8.20;;;;;;;11.73;100.00;93034.56;4973928;28;20034;-79
2023/05/04 01:50:15;;;;;;;12.65;8.95;;;;;;;11.76;100.00;93038.47;4993110;28;20038;-79
2023/05/04 01:52:41;;;;;;;12.25;8.85;;;;;;;11.75;100.00;93035.03;4993117;28;20034;-81
2023/05/04 01:55:06;;;;;;;12.70;8.75;;;;;;;11.75;100.00;93045.53;4976305;28;20030;-80
2023/05/04 01:57:32;;;;;;;14.55;9.90;;;;;;;11.74;100.00;93038.72;4988827;28;20038;-78
2023/05/04 01:59:58;;;;;;;13.52;8.93;;;;;;;11.71;100.00;93036.69;4977205;28;20492;-80
2023/05/04 02:02:24;;;;;;;12.82;8.52;;;;;;;11.71;100.00;93034.06;4988304;28;20074;-80
2023/05/04 02:04:50;;;;;;;13.98;8.93;;;;;;;11.70;100.00;93037.72;4973802;28;20472;-79
2023/05/04 02:07:15;;;;;;;12.80;8.80;;;;;;;11.70;100.00;93037.72;5005581;28;20046;-80
2023/05/04 02:09:41;;;;;;;22.33;9.65;;;;;;;11.70;100.00;93029.09;4993093;28;20030;-81
2023/05/04 02:12:07;;;;;;;13.45;9.23;;;;;;;11.68;100.00;93029.34;4992020;28;20042;-81
2023/05/04 02:14:32;;;;;;;12.80;8.95;;;;;;;11.66;100.00;93034.09;4993699;28;20030;-80
2023/05/04 02:16:58;;;;;;;15.50;9.90;;;;;;;11.67;100.00;93033.03;4992555;28;20074;-80
2023/05/04 02:19:24;;;;;;;13.02;9.38;;;;;;;11.68;100.00;93034.59;4993032;28;20054;-80
2023/05/04 02:21:51;;;;;;;17.73;10.25;;;;;;;11.64;100.00;93033.59;4975133;28;20035;-79
2023/05/04 02:24:16;;;;;;;14.13;9.40;;;;;;;11.63;100.00;93034.66;4986757;28;20082;-80
2023/05/04 02:26:42;;;;;;;13.10;9.13;;;;;;;11.65;100.00;93035.16;4956981;28;20125;-78
2023/05/04 02:29:08;;;;;;;15.27;10.35;;;;;;;11.74;100.00;93038.72;4956993;28;20035;-80
2023/05/04 02:31:34;;;;;;;17.23;10.15;;;;;;;11.67;100.00;93025.94;4973112;28;20409;-79
2023/05/04 02:34:00;;;;;;;14.45;9.70;;;;;;;11.67;100.00;93033.81;4974152;28;20288;-80
2023/05/04 02:36:26;;;;;;;14.40;10.43;;;;;;;11.66;100.00;93034.09;4973161;28;20058;-80
2023/05/04 02:38:53;;;;;;;16.25;11.35;;;;;;;11.66;100.00;93031.47;4957363;28;20105;-80
2023/05/04 02:41:19;;;;;;;13.90;10.70;;;;;;;11.64;100.00;93028.34;4975154;28;20046;-80
2023/05/04 02:43:45;;;;;;;16.88;11.40;;;;;;;11.62;100.00;93030.50;4971131;28;20038;-80
2023/05/04 02:46:11;;;;;;;13.60;10.02;;;;;;;11.70;100.00;93029.84;4973298;28;20103;-81
2023/05/04 02:48:36;;;;;;;14.38;10.77;;;;;;;11.71;100.00;93028.00;4973333;28;20042;-81
2023/05/04 02:51:02;;;;;;;14.60;9.80;;;;;;;11.71;100.00;93023.56;4974603;28;20102;-80
2023/05/04 02:53:28;;;;;;;13.82;9.85;;;;;;;11.67;100.00;93023.34;4989561;28;20114;-81
2023/05/04 02:55:53;;;;;;;14.23;9.63;;;;;;;11.60;100.00;93028.13;4972763;28;20042;-80
2023/05/04 02:58:19;;;;;;;17.70;11.02;;;;;;;11.60;100.00;93022.13;4974492;28;20121;-80
2023/05/04 03:00:44;;;;;;;15.75;10.57;;;;;;;11.62;100.00;93020.00;4970611;28;20109;-80
2023/05/04 03:03:10;;;;;;;15.57;11.15;;;;;;;11.66;100.00;93019.16;4973093;28;20043;-79
2023/05/04 03:05:36;;;;;;;15.98;10.60;;;;;;;11.62;100.00;93020.00;4968806;28;20039;-81
2023/05/04 03:08:01;;;;;;;15.43;10.65;;;;;;;11.61;100.00;93015.78;4944253;28;20036;-81
2023/05/04 03:10:27;;;;;;;15.98;11.15;;;;;;;11.58;100.00;93011.13;4976151;28;20042;-80
2023/05/04 03:12:52;;;;;;;18.48;10.20;;;;;;;11.50;100.00;93007.25;4976669;28;20061;-80
2023/05/04 03:15:18;;;;;;;16.40;11.70;;;;;;;11.54;100.00;93007.50;4960344;28;20409;-79
2023/05/04 03:17:44;;;;;;;15.93;9.88;;;;;;;11.50;100.00;93009.09;4976902;28;20061;-81
2023/05/04 03:20:11;;;;;;;16.15;10.23;;;;;;;11.48;100.00;93013.84;4976955;28;20066;-80
2023/05/04 03:22:38;;;;;;;15.35;11.02;;;;;;;11.47;100.00;93007.81;4979793;28;20042;-80
2023/05/04 03:25:05;;;;;;;16.25;9.98;;;;;;;11.49;100.00;93005.72;4972999;28;20053;-80
2023/05/04 03:27:30;;;;;;;15.63;10.63;;;;;;;11.48;100.00;93009.38;4992277;28;20074;-80
2023/05/04 03:29:56;;;;;;;16.50;11.23;;;;;;;11.50;100.00;93009.09;4976879;28;20034;-80
2023/05/04 03:32:23;;;;;;;18.70;11.70;;;;;;;11.49;100.00;93010.94;4975627;28;20042;-81
2023/05/04 03:34:49;;;;;;;18.48;11.57;;;;;;;11.45;100.00;93002.84;4972677;28;20116;-81
2023/05/04 03:37:16;;;;;;;16.80;11.52;;;;;;;11.44;100.00;93009.16;4975655;28;20501;-81
2023/05/04 03:39:41;;;;;;;19.25;11.40;;;;;;;11.43;100.00;93006.81;4976397;28;20078;-80
2023/05/04 03:42:07;;;;;;;17.38;11.63;;;;;;;11.44;100.00;93011.78;4976586;28;20049;-81
2023/05/04 03:44:33;;;;;;;21.27;12.60;;;;;;;11.43;100.00;93002.34;4970557;28;20408;-79
2023/05/04 03:46:58;;;;;;;18.42;12.57;;;;;;;11.43;100.00;93002.34;4971414;28;20038;-80
2023/05/04 03:49:24;;;;;;;23.77;12.90;;;;;;;11.42;100.00;92995.56;4975027;28;20053;-80
2023/05/04 03:51:49;;;;;;;18.50;12.55;;;;;;;11.41;100.00;93003.69;4973352;28;20051;-80
2023/05/04 03:54:15;;;;;;;17.38;12.18;;;;;;;11.39;100.00;93005.78;4979868;28;20035;-80
2023/05/04 03:56:40;;;;;;;17.92;12.15;;;;;;;11.38;100.00;92997.16;4976929;28;20404;-79
2023/05/04 03:59:07;;;;;;;17.20;11.75;;;;;;;11.40;100.00;92996.88;4970817;28;20054;-80
2023/05/04 04:01:32;;;;;;;22.77;12.68;;;;;;;11.39;100.00;93005.78;4973906;28;20485;-81
2023/05/04 04:03:58;;;;;;;19.27;12.80;;;;;;;11.38;100.00;93010.25;4975971;28;20347;-80
2023/05/04 04:06:23;;;;;;;22.80;12.80;;;;;;;11.37;100.00;92998.22;4955466;29;20039;-80
2023/05/04 04:08:50;;;;;;;19.33;13.02;;;;;;;11.38;100.00;93007.66;4970624;28;20023;-81
2023/05/04 04:11:16;;;;;;;18.73;12.90;;;;;;;11.36;100.00;93011.59;4972817;28;20053;-81
2023/05/04 04:13:41;;;;;;;20.85;13.40;;;;;;;11.35;100.00;93005.59;4974594;28;20511;-81
2023/05/04 04:16:07;;;;;;;18.73;12.52;;;;;;;11.36;100.00;93008.97;4974072;28;20509;-81
2023/05/04 04:18:33;;;;;;;18.92;13.20;;;;;;;11.34;100.00;93004.00;4974156;28;20110;-79
2023/05/04 04:20:58;;;;;;;19.75;11.88;;;;;;;11.34;100.00;93008.47;4973450;28;20114;-80
2023/05/04 04:23:24;;;;;;;19.33;12.40;;;;;;;11.35;100.00;93007.41;4997431;28;20113;-80
2023/05/04 04:25:50;;;;;;;17.40;12.35;;;;;;;11.35;100.00;93005.59;4996525;28;20084;-80
2023/05/04 04:28:16;;;;;;;17.40;11.65;;;;;;;11.35;100.00;93000.34;4976762;28;20050;-78
2023/05/04 04:30:41;;;;;;;16.60;10.65;;;;;;;11.37;100.00;93005.28;5014620;28;20034;-80
2023/05/04 04:33:08;;;;;;;17.10;11.52;;;;;;;11.38;100.00;92999.00;5014668;28;20202;-80
2023/05/04 04:35:33;;;;;;;20.05;11.95;;;;;;;11.37;100.00;93002.66;5015592;28;20060;-80
2023/05/04 04:37:59;;;;;;;19.33;12.25;;;;;;;11.35;100.00;92996.91;5014345;28;20057;-79
2023/05/04 04:40:25;;;;;;;16.25;11.68;;;;;;;11.34;100.00;92996.16;4996051;28;20359;-79
2023/05/04 04:42:51;;;;;;;19.13;12.68;;;;;;;11.33;100.00;92994.59;5013659;28;20034;-80
2023/05/04 04:45:17;;;;;;;18.25;12.40;;;;;;;11.40;100.00;93005.53;5011167;28;20038;-79
2023/05/04 04:47:44;;;;;;;18.88;12.30;;;;;;;11.42;100.00;93007.88;5010803;28;20053;-78
2023/05/04 04:50:10;;;;;;;18.38;13.32;;;;;;;11.37;100.00;93002.66;5012932;28;20033;-80
2023/05/04 04:52:36;;;;;;;18.58;13.02;;;;;;;11.40;100.00;93010.00;4995145;28;20367;-79
2023/05/04 04:55:03;;;;;;;18.88;12.77;;;;;;;11.41;100.00;93008.91;4992696;28;20128;-80
2023/05/04 04:57:29;;;;;;;19.42;11.68;;;;;;;11.45;100.00;93010.72;4994499;28;20574;-81
2023/05/04 04:59:55;;;;;;;16.33;11.63;;;;;;;11.48;100.00;93013.84;5014962;28;20372;-81
2023/05/04 05:02:21;;;;;;;18.33;11.45;;;;;;;11.44;100.00;93011.78;4996755;28;20034;-80
2023/05/04 05:04:46;;;;;;;16.40;11.20;;;;;;;11.45;100.00;93013.34;4994360;28;20065;-78
2023/05/04 05:07:12;;;;;;;16.23;11.07;;;;;;;11.45;100.00;93015.94;4995916;28;20038;-80
2023/05/04 05:09:37;;;;;;;15.07;10.68;;;;;;;11.45;100.00;93015.94;5013891;28;20159;-81
2023/05/04 05:12:04;;;;;;;14.38;10.65;;;;;;;11.44;100.00;93017.03;5011954;28;20037;-81
2023/05/04 05:14:32;;;;;;;17.33;11.45;;;;;;;11.45;100.00;93015.19;4997174;28;20342;-79
2023/05/04 05:16:58;;;;;;;18.48;12.75;;;;;;;11.45;100.00;93015.19;4997810;28;20030;-79
2023/05/04 05:19:24;;;;;;;19.80;12.15;;;;;;;11.47;100.00;93018.31;5013437;28;20261;-79
2023/05/04 05:21:51;;;;;;;15.63;10.70;;;;;;;11.52;100.00;93020.09;4972907;28;20412;-79
2023/05/04 05:24:17;;;;;;;15.27;10.55;;;;;;;11.60;100.00;93019.50;5004911;28;20054;-79
2023/05/04 05:26:42;;;;;;;15.93;10.52;;;;;;;11.59;100.00;93020.53;4991396;28;20113;-79
2023/05/04 05:29:08;;;;;;;16.15;11.05;;;;;;;11.49;100.00;93020.66;4995654;28;20037;-80
2023/05/04 05:31:34;;;;;;;15.57;10.38;;;;;;;11.43;100.00;93028.56;5012257;28;20050;-80
2023/05/04 05:33:59;;;;;;;16.77;11.32;;;;;;;11.42;100.00;93021.75;4994028;28;20092;-80
2023/05/04 05:36:26;;;;;;;15.65;10.10;;;;;;;11.42;100.00;93019.13;4995900;28;20036;-79
2023/05/04 05:38:51;;;;;;;15.48;10.88;;;;;;;11.43;100.00;93025.16;5011167;28;20038;-80
2023/05/04 05:41:17;;;;;;;15.70;10.38;;;;;;;11.42;100.00;93031.47;4994607;28;20068;-78
2023/05/04 05:43:43;;;;;;;18.70;11.35;;;;;;;11.48;100.00;93027.72;5012225;28;20021;-80
2023/05/04 05:46:08;;;;;;;15.00;10.65;;;;;;;11.56;100.00;93028.97;4993915;28;20408;-80
2023/05/04 05:48:34;;;;;;;17.50;10.25;;;;;;;11.51;100.00;93035.06;5009877;28;20041;-80
2023/05/04 05:51:00;;;;;;;16.02;10.52;;;;;;;11.55;100.00;93027.41;4997535;28;20033;-80
2023/05/04 05:53:25;;;;;;;16.30;10.27;;;;;;;11.53;100.00;93032.13;4996180;28;20052;-80
2023/05/04 05:55:51;;;;;;;15.80;10.32;;;;;;;11.55;100.00;93032.63;5009695;28;20120;-79
2023/05/04 05:58:17;;;;;;;14.95;10.27;;;;;;;11.56;100.00;93027.13;4996479;28;20403;-80
2023/05/04 06:00:42;;;;;;;15.30;10.20;;;;;;;11.64;100.00;93028.34;5012778;28;20079;-79
2023/05/04 06:03:08;;;;;;;19.55;12.00;;;;;;;11.70;100.00;93029.84;5001647;28;20504;-80
2023/05/04 06:05:33;;;;;;;15.77;11.05;;;;;;;11.75;100.00;93027.16;5007400;28;20029;-80
2023/05/04 06:07:59;;;;;;;15.90;10.23;;;;;;;11.83;100.00;93029.19;4994969;28;20411;-79
2023/05/04 06:10:25;;;;;;;16.55;10.15;;;;;;;11.86;100.00;93030.47;5012777;28;20022;-79
2023/05/04 06:12:51;;;;;;;17.30;11.57;;;;;;;11.97;100.00;93028.53;4960336;28;20026;-80
2023/05/04 06:15:17;;;;;;;19.67;12.00;;;;;;;12.00;100.00;93020.09;4994288;28;20040;-80
2023/05/04 06:17:42;;;;;;;22.08;12.98;;;;;;;12.08;100.00;93022.09;4996395;28;20038;-79
2023/05/04 06:20:08;;;;;;;20.17;12.18;;;;;;;12.02;100.00;93018.78;5013274;28;20037;-80
2023/05/04 06:22:34;;;;;;;15.10;9.82;;;;;;;12.03;100.00;93020.31;5013742;28;20081;-80
2023/05/04 06:25:00;;;;;;;13.48;9.10;;;;;;;12.17;100.00;93025.66;4996183;28;20137;-80
2023/05/04 06:27:27;;;;;;;13.50;8.95;;;;;;;12.07;100.00;93020.56;4996070;28;20136;-80
2023/05/04 06:29:53;;;;;;;15.60;9.90;;;;;;;12.08;100.00;93027.34;5013412;28;20128;-80
2023/05/04 06:32:18;;;;;;;16.35;10.00;;;;;;;12.14;100.00;93030.72;4995855;28;20038;-79
2023/05/04 06:34:44;;;;;;;17.35;10.65;;;;;;;12.07;100.00;93031.06;4996354;28;20076;-80
2023/05/04 06:37:10;;;;;;;14.23;9.82;;;;;;;12.13;100.00;93026.50;5014820;28;20033;-80
2023/05/04 06:39:36;;;;;;;13.82;9.35;;;;;;;12.23;100.00;93032.41;5017825;28;20034;-79
2023/05/04 06:42:02;;;;;;;15.00;9.73;;;;;;;12.29;100.00;93028.66;4999375;28;20042;-79
2023/05/04 06:44:36;;;;;;;14.52;9.68;;;;;;;12.36;100.00;93030.94;4999394;28;20038;-79
2023/05/04 06:47:02;;;;;;;14.23;10.23;;;;;;;12.53;100.00;93029.66;4999220;28;20065;-79
2023/05/04 06:49:31;;;;;;;18.17;9.20;;;;;;;12.58;100.00;93035.59;5000121;28;20033;-79
2023/05/04 06:51:56;;;;;;;12.80;8.82;;;;;;;12.67;100.00;93031.28;4999272;28;20026;-80
2023/05/04 06:54:22;;;;;;;11.75;8.57;;;;;;;13.00;100.00;93036.56;4982130;28;20061;-80
2023/05/04 06:56:47;;;;;;;13.32;8.52;;;;;;;13.33;100.00;93033.97;5016243;28;20045;-80
2023/05/04 06:59:13;;;;;;;11.00;7.53;;;;;;;13.63;100.00;93023.97;4996813;28;20038;-80
2023/05/04 07:01:39;;;;;;;17.35;9.30;;;;;;;13.57;100.00;93035.66;5017251;28;20034;-80
2023/05/04 07:04:04;;;;;;;13.05;9.20;;;;;;;13.68;100.00;93023.88;5016653;28;20065;-80
2023/05/04 07:06:31;;;;;;;14.45;9.93;;;;;;;13.86;100.00;93025.63;5016739;28;20041;-80
2023/05/04 07:08:56;;;;;;;14.13;10.13;;;;;;;14.11;100.00;93037.50;5017368;28;20026;-80
2023/05/04 07:11:22;;;;;;;13.77;9.93;;;;;;;14.27;100.00;93030.06;5016941;28;20515;-80
2023/05/04 07:13:48;;;;;;;16.88;10.98;;;;;;;14.22;100.00;93032.81;4982505;28;20033;-80
2023/05/04 07:16:14;;;;;;;12.95;7.53;;;;;;;14.12;100.00;93030.41;4982478;28;20045;-80
2023/05/04 07:18:39;;;;;;;17.08;10.10;;;;;;;14.17;100.00;93035.56;4981747;28;20395;-80
2023/05/04 07:21:10;;;;;;;14.32;9.25;;;;;;;14.25;100.00;93034.88;4998607;28;20029;-80
2023/05/04 07:23:36;;;;;;;15.82;10.23;;;;;;;14.35;100.00;93032.00;5007169;28;20053;-79
2023/05/04 07:26:03;;;;;;;13.07;8.63;;;;;;;14.21;100.00;93031.28;5051337;28;20046;-80
2023/05/04 07:28:28;;;;;;;15.82;10.73;;;;;;;14.33;100.00;93026.25;5034727;28;20033;-81
2023/05/04 07:30:54;;;;;;;17.90;11.80;;;;;;;14.59;100.00;93033.66;5018009;28;20582;-79
2023/05/04 07:33:20;;;;;;;15.77;10.40;;;;;;;14.69;100.00;93036.06;5028052;28;20048;-80
2023/05/04 07:35:45;;;;;;;15.98;11.77;;;;;;;14.67;99.11;93038.22;5034837;28;20044;-80
2023/05/04 07:38:11;;;;;;;15.20;8.80;;;;;;;15.08;97.80;93034.63;5018468;28;20033;-80
2023/05/04 07:40:36;;;;;;;15.15;9.30;;;;;;;15.42;92.48;93030.66;5001462;28;20041;-80
2023/05/04 07:43:02;;;;;;;17.40;11.27;;;;;;;15.46;89.63;93036.09;5018004;28;20037;-80
2023/05/04 07:45:27;;;;;;;15.85;11.13;;;;;;;15.31;94.31;93037.25;5033319;28;20037;-80
2023/05/04 07:47:53;;;;;;;16.05;11.27;;;;;;;14.96;95.21;93035.19;5034659;28;20499;-80
2023/05/04 07:50:19;;;;;;;12.95;9.05;;;;;;;14.97;93.23;93041.22;5035595;28;20117;-80
2023/05/04 07:52:46;;;;;;;14.07;9.95;;;;;;;14.88;94.12;93041.19;5018280;28;20072;-81
2023/05/04 07:55:12;;;;;;;19.85;10.52;;;;;;;14.63;95.35;93037.25;5039387;28;20068;-80
2023/05/04 07:57:38;;;;;;;14.50;7.47;;;;;;;14.45;94.44;93035.50;5035367;28;20037;-79
2023/05/04 08:00:05;;;;;;;21.60;9.35;;;;;;;14.61;94.71;93043.88;5035486;28;20121;-80
2023/05/04 08:02:39;;;;;;;16.23;11.15;;;;;;;14.82;95.66;93044.22;5034715;28;20106;-80
2023/05/04 08:05:05;;;;;;;15.77;11.00;;;;;;;15.12;91.51;93045.38;5034636;28;20547;-80
2023/05/04 08:07:31;;;;;;;14.57;9.77;;;;;;;15.07;91.44;93043.63;5035199;28;20041;-80
2023/05/04 08:09:57;;;;;;;16.05;10.98;;;;;;;14.89;90.27;93034.06;5017989;28;20025;-80
2023/05/04 08:12:25;;;;;;;14.77;10.73;;;;;;;15.15;93.69;93032.38;5036458;28;20084;-80
2023/05/04 08:14:51;;;;;;;13.55;10.13;;;;;;;15.41;89.58;93029.88;5026947;28;20095;-80
2023/05/04 08:17:16;;;;;;;15.70;11.32;;;;;;;15.24;91.32;93035.03;5050345;28;20487;-81
2023/05/04 08:19:42;;;;;;;16.27;11.05;;;;;;;15.13;91.55;93034.53;5034868;28;20143;-79
2023/05/04 08:22:09;;;;;;;13.88;10.30;;;;;;;15.09;95.29;93038.84;5035345;28;20048;-81
2023/05/04 08:24:35;;;;;;;14.32;10.23;;;;;;;15.35;91.37;93033.72;5027065;28;20072;-80
2023/05/04 08:27:02;;;;;;;13.73;10.20;;;;;;;15.02;90.09;93035.84;5034636;28;20034;-80
2023/05/04 08:29:30;;;;;;;14.48;10.52;;;;;;;15.02;88.40;93033.22;5033692;28;20055;-79
2023/05/04 08:31:56;;;;;;;16.08;10.77;;;;;;;15.11;89.47;93038.56;5034670;28;20077;-80
2023/05/04 08:34:22;;;;;;;13.27;8.73;;;;;;;15.12;87.49;93037.47;5035417;28;20045;-79
2023/05/04 08:36:48;;;;;;;14.10;9.20;;;;;;;15.08;88.47;93033.88;5017396;28;20042;-81
2023/05/04 08:39:14;;;;;;;13.05;8.32;;;;;;;15.04;89.86;93036.34;5034273;28;20491;-80
2023/05/04 08:41:40;;;;;;;12.90;8.52;;;;;;;14.89;87.68;93028.78;5035065;28;20037;-80
2023/05/04 08:44:09;;;;;;;11.85;7.47;;;;;;;15.25;89.63;93038.47;5034973;28;20100;-80
2023/05/04 08:46:36;;;;;;;12.82;8.02;;;;;;;15.41;87.63;93039.66;5032473;28;20041;-79
2023/05/04 08:49:02;;;;;;;13.60;7.80;;;;;;;15.73;85.19;93035.19;5032898;28;20033;-80
2023/05/04 08:51:32;;;;;;;10.18;7.15;;;;;;;15.89;84.59;93038.19;5033176;28;20037;-80
2023/05/04 08:53:58;;;;;;;8.00;5.53;;;;;;;16.04;82.83;93035.16;5032744;28;20033;-79
2023/05/04 08:56:24;;;;;;;8.82;5.13;;;;;;;15.87;82.35;93024.53;5050428;28;20029;-80
2023/05/04 08:58:51;;;;;;;8.13;4.97;;;;;;;15.85;83.04;93038.03;5032885;28;20699;-80
2023/05/04 09:01:20;;;;;;;10.82;6.28;;;;;;;16.01;81.32;93031.25;5032047;28;20037;-80
2023/05/04 09:03:47;;;;;;;9.48;6.18;;;;;;;16.05;82.80;93030.63;5032769;28;20030;-80
2023/05/04 09:06:13;;;;;;;9.63;5.85;;;;;;;16.25;79.59;93035.34;5034055;28;20041;-80
2023/05/04 09:08:40;;;;;;;9.60;6.15;;;;;;;16.01;76.94;93035.75;5014667;28;20033;-79
2023/05/04 09:11:06;;;;;;;8.18;5.22;;;;;;;15.78;78.90;93042.97;5029473;28;20479;-76
2023/05/04 09:13:31;;;;;;;8.50;5.97;;;;;;;15.86;79.06;93039.59;5026527;28;20126;-75
2023/05/04 09:15:57;;;;;;;11.18;6.95;;;;;;;15.60;79.63;93034.16;5026680;28;20056;-75
2023/05/04 09:18:34;;;;;;;11.48;6.97;;;;;;;15.23;79.95;93033.50;5028392;28;20515;-75
2023/05/04 09:21:00;;;;;;;9.15;5.97;;;;;;;15.19;81.63;93033.31;5026657;28;20052;-75
2023/05/04 09:23:26;;;;;;;11.73;7.25;;;;;;;15.17;80.35;93039.97;5025858;28;20460;-75
2023/05/04 09:25:53;;;;;;;10.30;7.05;;;;;;;15.13;82.33;93039.81;5025699;28;20105;-75
2023/05/04 09:28:21;;;;;;;12.50;7.28;;;;;;;15.30;80.91;93033.06;5028705;28;20033;-75
2023/05/04 09:30:47;;;;;;;11.75;6.88;;;;;;;15.52;79.99;93033.03;5029557;28;20108;-76
2023/05/04 09:33:23;;;;;;;11.52;6.13;;;;;;;15.74;78.45;93032.25;5012561;28;20500;-76
2023/05/04 09:35:50;;;;;;;15.75;5.97;;;;;;;15.79;76.62;93023.41;5040556;28;20431;-76
2023/05/04 09:38:25;;;;;;;8.57;5.45;;;;;;;15.86;77.87;93023.75;5026789;28;20666;-76
2023/05/04 09:40:51;;;;;;;8.52;5.65;;;;;;;16.05;77.71;93028.00;5026387;28;20037;-75
2023/05/04 09:43:17;;;;;;;9.02;5.88;;;;;;;16.01;74.26;93028.63;5041616;28;20052;-75
2023/05/04 09:45:47;;;;;;;8.65;5.97;;;;;;;15.78;75.80;93032.41;5028521;28;20061;-75
2023/05/04 09:48:27;;;;;;;10.10;7.05;;;;;;;15.84;76.47;93031.19;5024918;28;20421;-76
2023/05/04 09:50:57;;;;;;;8.88;6.05;;;;;;;15.79;77.07;93021.53;5026570;28;20120;-76
2023/05/04 09:53:25;;;;;;;12.30;5.80;;;;;;;16.07;76.71;93023.19;5025944;28;20055;-75
2023/05/04 09:55:53;;;;;;;9.73;6.18;;;;;;;16.07;75.60;93023.19;5029035;28;20080;-76
2023/05/04 09:58:20;;;;;;;8.98;5.25;;;;;;;16.22;74.97;93030.69;5023782;28;20052;-75
2023/05/04 10:00:46;;;;;;;10.10;5.35;;;;;;;16.17;75.88;93018.41;5029322;28;20038;-75
2023/05/04 10:03:13;;;;;;;8.50;4.43;;;;;;;16.52;75.25;93022.97;5028275;28;20083;-76
2023/05/04 10:05:39;;;;;;;7.47;4.45;;;;;;;16.43;74.70;93018.44;5026800;28;20029;-75
2023/05/04 10:08:05;;;;;;;8.27;5.85;;;;;;;16.36;76.00;93017.34;5027172;28;20175;-75
2023/05/04 10:10:32;;;;;;;10.20;6.82;;;;;;;16.96;75.08;93018.50;5026165;28;20061;-76
2023/05/04 10:12:58;;;;;;;8.32;5.32;;;;;;;17.05;71.79;93021.91;5031367;28;20538;-76
2023/05/04 10:15:24;;;;;;;8.30;5.57;;;;;;;17.21;74.48;93028.28;5030610;28;20045;-75
2023/05/04 10:18:19;;;;;;;11.23;5.72;;;;;;;17.16;71.94;93014.44;5032495;28;20049;-77
2023/05/04 10:20:51;;;;;;;8.50;6.03;;;;;;;16.84;74.23;93017.25;4985103;28;20211;-77
2023/05/04 10:23:28;;;;;;;7.40;5.13;;;;;;;17.27;73.49;93013.03;5031081;28;20037;-77
2023/05/04 10:26:15;;;;;;;9.38;6.00;;;;;;;18.03;69.09;93004.34;5032798;28;20056;-77
2023/05/04 10:29:10;;;;;;;7.78;4.65;;;;;;;17.70;69.39;93009.47;5044291;28;20033;-77
2023/05/04 10:31:40;;;;;;;8.07;5.65;;;;;;;17.37;69.01;93004.72;5027557;28;21368;-78
2023/05/04 10:34:07;;;;;;;8.35;4.95;;;;;;;17.31;70.78;92997.28;5033835;28;20407;-78
2023/05/04 10:36:40;;;;;;;8.63;5.75;;;;;;;17.23;68.83;93001.50;5036521;28;20041;-78
2023/05/04 10:39:19;;;;;;;8.50;4.85;;;;;;;17.19;70.67;93009.28;5036567;28;20120;-78
2023/05/04 10:42:07;;;;;;;9.82;5.95;;;;;;;17.52;69.52;93005.31;5035003;28;20097;-77
2023/05/04 10:44:34;;;;;;;9.60;6.35;;;;;;;17.61;70.59;93001.56;5018053;28;20030;-78
2023/05/04 10:47:04;;;;;;;8.88;5.65;;;;;;;17.73;68.26;93006.19;5034705;28;20057;-78
2023/05/04 10:49:31;;;;;;;18.90;6.18;;;;;;;17.86;68.24;92999.94;5035200;28;20056;-78
2023/05/04 10:52:17;;;;;;;6.97;5.05;;;;;;;17.81;67.02;92991.34;5035059;28;20038;-78
2023/05/04 10:54:43;;;;;;;8.13;5.53;;;;;;;17.35;67.38;92985.75;5025471;28;20045;-77
2023/05/04 10:57:11;;;;;;;7.68;5.32;;;;;;;17.20;69.53;92989.69;5030531;28;20091;-77
2023/05/04 10:59:38;;;;;;;7.68;4.68;;;;;;;16.95;69.59;92987.84;5026769;28;20099;-76
2023/05/04 11:02:05;;;;;;;11.65;6.78;;;;;;;16.72;72.39;92980.06;5027755;28;20042;-76
2023/05/04 11:04:32;;;;;;;8.90;5.43;;;;;;;16.70;69.84;92976.94;5029765;28;20029;-76
2023/05/04 11:07:05;;;;;;;8.05;4.97;;;;;;;16.92;71.88;92970.75;5026629;28;20041;-76
2023/05/04 11:09:38;;;;;;;7.15;4.25;;;;;;;17.20;71.97;92973.81;5028033;28;20061;-76
2023/05/04 11:12:05;;;;;;;8.50;5.35;;;;;;;17.39;71.05;92970.03;5029984;28;20032;-78
2023/05/04 11:14:31;;;;;;;10.10;5.57;;;;;;;17.44;69.21;92967.97;5031856;28;20033;-78
2023/05/04 11:17:10;;;;;;;9.82;5.80;;;;;;;17.50;67.71;92971.25;5030638;28;20056;-78